Latest Weather Observations for Kurnell

IDN60901

Issued at 5:21 am EDT Monday 5 December 2016 (issued every 10 minutes, with the page automatically refreshed every 10 minutes)

About weather observations | Map of Sydney area stations | Latest observations for Sydney area | Other Formats
Station Details ID: 066043 Name: KURNELL AWS Lat: -34.00 Lon: 151.21 Height: 4.0 m
Data from the previous 72 hours. | See also: Recent months for locations in New South Wales
Date/Time
EDT
Temp
°C
App
Temp
°C
Dew
Point
°C
Rel
Hum
%
Delta-T
°C
Wind Press
QNH
hPa
Press
MSL
hPa
Rain since
9am
mm
Dir  Spd
km/h
Gust
km/h
Spd
kts
Gust
kts
05/05:00am - - - - - SSE 15 19 8 10 - - -
05/04:30am - - - - - S 11 15 6 8 - - -
05/04:00am - - - - - ESE 11 13 6 7 - - -
05/03:30am - - - - - E 11 15 6 8 - - -
05/03:00am - - - - - NE 9 11 5 6 - - -
05/02:30am - - - - - NE 17 19 9 10 - - -
05/02:00am - - - - - NE 13 15 7 8 - - -
05/01:30am - - - - - NE 13 17 7 9 - - -
05/01:00am - - - - - NNE 17 24 9 13 - - -
05/12:30am - - - - - NNE 19 24 10 13 - - -
05/12:00am - - - - - NNE 15 20 8 11 - - -
 
Date/Time
EDT
Temp
°C
App
Temp
°C
Dew
Point
°C
Rel
Hum
%
Delta-T
°C
Wind Press
QNH
hPa
Press
MSL
hPa
Rain since
9am
mm
Dir  Spd
km/h
Gust
km/h
Spd
kts
Gust
kts
04/11:30pm - - - - - NE 24 30 13 16 - - -
04/11:00pm - - - - - NE 26 32 14 17 - - -
04/10:30pm - - - - - N 20 26 11 14 - - -
04/10:00pm - - - - - NNE 28 35 15 19 - - -
04/09:30pm - - - - - NNE 22 30 12 16 - - -
04/09:00pm - - - - - NE 24 30 13 16 - - -
04/08:30pm - - - - - NE 20 26 11 14 - - -
04/08:00pm - - - - - NE 26 32 14 17 - - -
04/07:30pm - - - - - NE 26 33 14 18 - - -
04/07:00pm - - - - - NE 28 33 15 18 - - -
04/06:30pm - - - - - NE 30 37 16 20 - - -
04/06:00pm - - - - - NE 28 33 15 18 - - -
04/05:30pm - - - - - NE 33 39 18 21 - - -
04/05:00pm - - - - - ENE 33 41 18 22 - - -
04/04:30pm - - - - - ENE 30 37 16 20 - - -
04/04:00pm - - - - - ENE 30 35 16 19 - - -
04/03:30pm - - - - - ENE 28 35 15 19 - - -
04/03:00pm - - - - - ENE 28 33 15 18 - - -
04/02:30pm - - - - - ENE 26 33 14 18 - - -
04/02:00pm - - - - - E 22 28 12 15 - - -
04/01:30pm - - - - - E 26 32 14 17 - - -
04/01:00pm - - - - - E 24 30 13 16 - - -
04/12:30pm - - - - - ENE 26 30 14 16 - - -
04/12:00pm - - - - - ENE 26 32 14 17 - - -
04/11:30am - - - - - ENE 26 32 14 17 - - -
04/11:00am - - - - - ENE 24 28 13 15 - - -
04/10:30am - - - - - ENE 19 24 10 13 - - -
04/10:00am - - - - - E 15 19 8 10 - - -
04/09:30am - - - - - CALM 0 0 0 0 - - -
04/09:00am - - - - - CALM 0 0 0 0 - - -
04/08:30am - - - - - W 6 7 3 4 - - -
04/08:00am - - - - - W 9 9 5 5 - - -
04/07:30am - - - - - W 6 7 3 4 - - -
04/07:00am - - - - - W 4 9 2 5 - - -
04/06:30am - - - - - SE 2 13 1 7 - - -
04/06:00am - - - - - CALM 0 0 0 0 - - -
04/05:30am - - - - - CALM 0 0 0 0 - - -
04/05:00am - - - - - SSW 6 7 3 4 - - -
04/04:30am - - - - - SSW 2 7 1 4 - - -
04/04:00am - - - - - CALM 0 0 0 0 - - -
04/03:30am - - - - - SW 7 9 4 5 - - -
04/03:00am - - - - - SW 9 11 5 6 - - -
04/02:30am - - - - - SW 9 11 5 6 - - -
04/02:00am - - - - - SW 7 9 4 5 - - -
04/01:30am - - - - - WNW 9 9 5 5 - - -
04/01:00am - - - - - NW 7 7 4 4 - - -
04/12:30am - - - - - N 9 13 5 7 - - -
04/12:00am - - - - - NNW 6 9 3 5 - - -
 
Date/Time
EDT
Temp
°C
App
Temp
°C
Dew
Point
°C
Rel
Hum
%
Delta-T
°C
Wind Press
QNH
hPa
Press
MSL
hPa
Rain since
9am
mm
Dir  Spd
km/h
Gust
km/h
Spd
kts
Gust
kts
03/11:30pm - - - - - NE 9 11 5 6 - - -
03/11:00pm - - - - - NE 7 9 4 5 - - -
03/10:30pm - - - - - NE 9 11 5 6 - - -
03/10:00pm - - - - - ENE 13 17 7 9 - - -
03/09:30pm - - - - - ENE 11 13 6 7 - - -
03/09:00pm - - - - - ENE 13 15 7 8 - - -
03/08:30pm - - - - - E 11 13 6 7 - - -
03/08:00pm - - - - - ENE 13 15 7 8 - - -
03/07:30pm - - - - - E 13 17 7 9 - - -
03/07:00pm - - - - - E 17 20 9 11 - - -
03/06:30pm - - - - - E 19 24 10 13 - - -
03/06:00pm - - - - - E 19 24 10 13 - - -
03/05:30pm - - - - - E 19 26 10 14 - - -
03/05:00pm - - - - - E 19 26 10 14 - - -
03/04:30pm - - - - - E 20 26 11 14 - - -
03/04:00pm - - - - - E 20 30 11 16 - - -
03/03:30pm - - - - - ESE 20 30 11 16 - - -
03/03:00pm - - - - - SE 20 28 11 15 - - -
03/02:30pm - - - - - ESE 24 30 13 16 - - -
03/02:00pm - - - - - ESE 24 30 13 16 - - -
03/01:30pm - - - - - ESE 20 30 11 16 - - -
03/01:00pm - - - - - SE 22 30 12 16 - - -
03/12:30pm - - - - - SE 22 30 12 16 - - -
03/12:00pm - - - - - SE 22 26 12 14 - - -
03/11:30am - - - - - SE 19 28 10 15 - - -
03/11:00am - - - - - SSE 20 26 11 14 - - -
03/10:30am - - - - - SE 19 26 10 14 - - -
03/10:00am - - - - - S 17 24 9 13 - - -
03/09:30am - - - - - S 19 26 10 14 - - -
03/09:00am - - - - - SSE 17 20 9 11 - - -
03/08:30am - - - - - S 17 20 9 11 - - -
03/08:00am - - - - - SSE 15 19 8 10 - - -
03/07:30am - - - - - SSE 15 19 8 10 - - -
03/07:00am - - - - - SSE 15 19 8 10 - - -
03/06:30am - - - - - SSE 15 19 8 10 - - -
03/06:00am - - - - - SSE 15 20 8 11 - - -
03/05:30am - - - - - SSE 17 20 9 11 - - -
03/05:00am - - - - - SSE 17 22 9 12 - - -
03/04:30am - - - - - SSE 15 19 8 10 - - -
03/04:00am - - - - - SSE 15 26 8 14 - - -
03/03:30am - - - - - SSE 20 30 11 16 - - -
03/03:00am - - - - - SSE 19 30 10 16 - - -
03/02:30am - - - - - SSE 24 32 13 17 - - -
03/02:00am - - - - - S 28 43 15 23 - - -
03/01:30am - - - - - S 32 43 17 23 - - -
03/01:00am - - - - - S 30 39 16 21 - - -
03/12:30am - - - - - SSW 32 39 17 21 - - -
03/12:00am - - - - - SSW 33 44 18 24 - - -
 
Date/Time
EDT
Temp
°C
App
Temp
°C
Dew
Point
°C
Rel
Hum
%
Delta-T
°C
Wind Press
QNH
hPa
Press
MSL
hPa
Rain since
9am
mm
Dir  Spd
km/h
Gust
km/h
Spd
kts
Gust
kts
02/11:30pm - - - - - SSW 35 44 19 24 - - -
02/11:00pm - - - - - SSW 39 52 21 28 - - -
02/10:50pm - - - - - SSW 35 54 19 29 - - -
02/10:30pm - - - - - SSW 39 54 21 29 - - -
02/10:00pm - - - - - SSW 39 57 21 31 - - -
02/09:56pm - - - - - SSW 39 57 21 31 - - -
02/09:30pm - - - - - SSW 41 52 22 28 - - -
02/09:00pm - - - - - SSW 43 57 23 31 - - -
02/08:33pm - - - - - SW 41 59 22 32 - - -
02/08:30pm - - - - - SW 39 52 21 28 - - -
02/08:13pm - - - - - W 24 59 13 32 - - -
02/08:11pm - - - - - W 19 41 10 22 - - -
02/08:00pm - - - - - NW 15 20 8 11 - - -
02/07:30pm - - - - - NE 13 15 7 8 - - -
02/07:00pm - - - - - ENE 17 20 9 11 - - -
02/06:30pm - - - - - ENE 17 19 9 10 - - -
02/06:00pm - - - - - NE 17 20 9 11 - - -
02/05:30pm - - - - - NE 19 19 10 10 - - -
02/05:00pm - - - - - ENE 11 13 6 7 - - -
02/04:30pm - - - - - ENE 15 19 8 10 - - -
02/04:00pm - - - - - E 20 26 11 14 - - -
02/03:30pm - - - - - E 24 28 13 15 - - -
02/03:00pm - - - - - E 26 30 14 16 - - -
02/02:30pm - - - - - ENE 28 32 15 17 - - -
02/02:00pm - - - - - E 26 30 14 16 - - -
02/01:30pm - - - - - E 24 30 13 16 - - -
02/01:00pm - - - - - E 22 26 12 14 - - -
02/12:30pm - - - - - ENE 19 24 10 13 - - -
02/12:00pm - - - - - E 13 15 7 8 - - -
02/11:30am - - - - - NW 11 13 6 7 - - -
02/11:00am - - - - - NW 15 19 8 10 - - -
02/10:30am - - - - - N 9 9 5 5 - - -
02/10:00am - - - - - N 2 7 1 4 - - -
02/09:30am - - - - - NNW 7 9 4 5 - - -
02/09:00am - - - - - NNW 7 9 4 5 - - -
02/08:30am - - - - - NW 7 9 4 5 - - -
02/08:00am - - - - - NW 7 7 4 4 - - -
02/07:30am - - - - - NNW 9 11 5 6 - - -
02/07:00am - - - - - CALM 0 7 0 4 - - -
02/06:30am - - - - - SW 7 9 4 5 - - -
02/06:00am - - - - - S 4 7 2 4 - - -
02/05:30am - - - - - CALM 0 6 0 3 - - -

Latest Capital City Observations: Canberra | Sydney | Melbourne | Brisbane | Adelaide | Perth | Hobart | Darwin

Other Formats:

Comma delimited format used in spreadsheet applications
http://www.bom.gov.au/fwo/IDN60901/IDN60901.95756.axf

JavaScript Object Notation format (JSON) in row-major order
http://www.bom.gov.au/fwo/IDN60901/IDN60901.95756.json